sensor_id;sensor_type;location;lat;lon;timestamp;P1;durP1;ratioP1;P2;durP2;ratioP2
5900;SDS011;2976;49.764;9.796;2023-03-08T00:00:06;10.13;;;5.53;;
5900;SDS011;2976;49.764;9.796;2023-03-08T00:02:34;13.47;;;5.00;;
5900;SDS011;2976;49.764;9.796;2023-03-08T00:05:00;13.10;;;6.40;;
5900;SDS011;2976;49.764;9.796;2023-03-08T00:07:26;7.30;;;5.20;;
5900;SDS011;2976;49.764;9.796;2023-03-08T00:09:51;9.37;;;5.83;;
5900;SDS011;2976;49.764;9.796;2023-03-08T00:12:17;13.63;;;6.27;;
5900;SDS011;2976;49.764;9.796;2023-03-08T00:14:44;16.43;;;5.20;;
5900;SDS011;2976;49.764;9.796;2023-03-08T00:17:10;7.87;;;5.63;;
5900;SDS011;2976;49.764;9.796;2023-03-08T00:19:36;10.53;;;5.77;;
5900;SDS011;2976;49.764;9.796;2023-03-08T00:22:02;11.13;;;6.00;;
5900;SDS011;2976;49.764;9.796;2023-03-08T00:24:28;13.33;;;5.50;;
5900;SDS011;2976;49.764;9.796;2023-03-08T00:26:54;11.00;;;5.93;;
5900;SDS011;2976;49.764;9.796;2023-03-08T00:29:19;7.47;;;5.60;;
5900;SDS011;2976;49.764;9.796;2023-03-08T00:31:45;9.10;;;5.70;;
5900;SDS011;2976;49.764;9.796;2023-03-08T00:34:10;19.63;;;5.70;;
5900;SDS011;2976;49.764;9.796;2023-03-08T00:36:36;10.10;;;5.93;;
5900;SDS011;2976;49.764;9.796;2023-03-08T00:39:01;9.20;;;6.00;;
5900;SDS011;2976;49.764;9.796;2023-03-08T00:41:27;11.67;;;5.50;;
5900;SDS011;2976;49.764;9.796;2023-03-08T00:43:52;10.40;;;6.00;;
5900;SDS011;2976;49.764;9.796;2023-03-08T00:46:18;9.90;;;5.97;;
5900;SDS011;2976;49.764;9.796;2023-03-08T00:48:43;8.63;;;5.03;;
5900;SDS011;2976;49.764;9.796;2023-03-08T00:51:11;11.57;;;7.00;;
5900;SDS011;2976;49.764;9.796;2023-03-08T00:53:39;8.60;;;4.90;;
5900;SDS011;2976;49.764;9.796;2023-03-08T00:56:04;14.23;;;6.03;;
5900;SDS011;2976;49.764;9.796;2023-03-08T00:58:30;11.03;;;5.53;;
5900;SDS011;2976;49.764;9.796;2023-03-08T01:00:56;14.00;;;6.50;;
5900;SDS011;2976;49.764;9.796;2023-03-08T01:03:22;9.67;;;6.43;;
5900;SDS011;2976;49.764;9.796;2023-03-08T01:05:49;10.17;;;6.97;;
5900;SDS011;2976;49.764;9.796;2023-03-08T01:08:17;8.40;;;5.37;;
5900;SDS011;2976;49.764;9.796;2023-03-08T01:10:50;11.77;;;5.97;;
5900;SDS011;2976;49.764;9.796;2023-03-08T01:13:21;10.10;;;5.93;;
5900;SDS011;2976;49.764;9.796;2023-03-08T01:15:51;11.20;;;5.20;;
5900;SDS011;2976;49.764;9.796;2023-03-08T01:18:17;11.10;;;5.27;;
5900;SDS011;2976;49.764;9.796;2023-03-08T01:20:42;9.87;;;5.23;;
5900;SDS011;2976;49.764;9.796;2023-03-08T01:23:08;8.17;;;4.90;;
5900;SDS011;2976;49.764;9.796;2023-03-08T01:25:34;9.47;;;6.10;;
5900;SDS011;2976;49.764;9.796;2023-03-08T01:28:00;11.27;;;5.17;;
5900;SDS011;2976;49.764;9.796;2023-03-08T01:30:25;11.40;;;5.03;;
5900;SDS011;2976;49.764;9.796;2023-03-08T01:32:51;9.10;;;5.30;;
5900;SDS011;2976;49.764;9.796;2023-03-08T01:35:16;10.40;;;5.23;;
5900;SDS011;2976;49.764;9.796;2023-03-08T01:37:42;14.90;;;5.70;;
5900;SDS011;2976;49.764;9.796;2023-03-08T01:40:08;8.20;;;5.27;;
5900;SDS011;2976;49.764;9.796;2023-03-08T01:42:36;10.10;;;6.07;;
5900;SDS011;2976;49.764;9.796;2023-03-08T01:45:03;7.17;;;4.87;;
5900;SDS011;2976;49.764;9.796;2023-03-08T01:47:31;9.33;;;5.20;;
5900;SDS011;2976;49.764;9.796;2023-03-08T01:50:02;9.13;;;5.37;;
5900;SDS011;2976;49.764;9.796;2023-03-08T01:52:32;7.73;;;4.90;;
5900;SDS011;2976;49.764;9.796;2023-03-08T01:55:03;11.20;;;4.77;;
5900;SDS011;2976;49.764;9.796;2023-03-08T01:57:33;7.80;;;5.87;;
5900;SDS011;2976;49.764;9.796;2023-03-08T02:00:04;9.27;;;5.40;;
5900;SDS011;2976;49.764;9.796;2023-03-08T02:02:34;9.23;;;4.90;;
5900;SDS011;2976;49.764;9.796;2023-03-08T02:05:04;14.40;;;6.50;;
5900;SDS011;2976;49.764;9.796;2023-03-08T02:07:30;10.00;;;5.13;;
5900;SDS011;2976;49.764;9.796;2023-03-08T02:09:56;15.80;;;5.67;;
5900;SDS011;2976;49.764;9.796;2023-03-08T02:12:21;9.50;;;5.60;;
5900;SDS011;2976;49.764;9.796;2023-03-08T02:14:47;8.40;;;5.00;;
5900;SDS011;2976;49.764;9.796;2023-03-08T02:17:14;8.37;;;5.73;;
5900;SDS011;2976;49.764;9.796;2023-03-08T02:19:51;7.80;;;5.60;;
5900;SDS011;2976;49.764;9.796;2023-03-08T02:22:30;8.67;;;4.80;;
5900;SDS011;2976;49.764;9.796;2023-03-08T02:24:56;10.97;;;5.87;;
5900;SDS011;2976;49.764;9.796;2023-03-08T02:27:25;9.10;;;5.40;;
5900;SDS011;2976;49.764;9.796;2023-03-08T02:29:52;10.83;;;5.77;;
5900;SDS011;2976;49.764;9.796;2023-03-08T02:32:18;8.30;;;5.67;;
5900;SDS011;2976;49.764;9.796;2023-03-08T02:34:43;11.23;;;6.00;;
5900;SDS011;2976;49.764;9.796;2023-03-08T02:37:09;9.80;;;5.30;;
5900;SDS011;2976;49.764;9.796;2023-03-08T02:39:35;10.40;;;5.60;;
5900;SDS011;2976;49.764;9.796;2023-03-08T02:42:00;9.80;;;5.70;;
5900;SDS011;2976;49.764;9.796;2023-03-08T02:44:26;10.20;;;6.43;;
5900;SDS011;2976;49.764;9.796;2023-03-08T02:46:51;15.23;;;6.93;;
5900;SDS011;2976;49.764;9.796;2023-03-08T02:49:17;11.60;;;6.37;;
5900;SDS011;2976;49.764;9.796;2023-03-08T02:51:43;14.23;;;7.00;;
5900;SDS011;2976;49.764;9.796;2023-03-08T02:54:08;8.10;;;5.57;;
5900;SDS011;2976;49.764;9.796;2023-03-08T02:56:34;9.80;;;5.67;;
5900;SDS011;2976;49.764;9.796;2023-03-08T02:59:01;10.40;;;6.17;;
5900;SDS011;2976;49.764;9.796;2023-03-08T03:01:27;12.77;;;6.00;;
5900;SDS011;2976;49.764;9.796;2023-03-08T03:03:53;11.27;;;5.83;;
5900;SDS011;2976;49.764;9.796;2023-03-08T03:06:19;8.97;;;5.20;;
5900;SDS011;2976;49.764;9.796;2023-03-08T03:08:45;13.50;;;5.77;;
5900;SDS011;2976;49.764;9.796;2023-03-08T03:11:12;9.83;;;5.47;;
5900;SDS011;2976;49.764;9.796;2023-03-08T03:13:39;12.07;;;6.40;;
5900;SDS011;2976;49.764;9.796;2023-03-08T03:16:07;15.33;;;6.07;;
5900;SDS011;2976;49.764;9.796;2023-03-08T03:18:38;8.70;;;5.80;;
5900;SDS011;2976;49.764;9.796;2023-03-08T03:21:04;12.80;;;6.70;;
5900;SDS011;2976;49.764;9.796;2023-03-08T03:23:32;9.37;;;5.40;;
5900;SDS011;2976;49.764;9.796;2023-03-08T03:26:07;12.53;;;5.70;;
5900;SDS011;2976;49.764;9.796;2023-03-08T03:28:38;13.43;;;7.10;;
5900;SDS011;2976;49.764;9.796;2023-03-08T03:31:08;14.90;;;6.30;;
5900;SDS011;2976;49.764;9.796;2023-03-08T03:33:39;8.90;;;5.07;;
5900;SDS011;2976;49.764;9.796;2023-03-08T03:36:05;11.73;;;6.40;;
5900;SDS011;2976;49.764;9.796;2023-03-08T03:38:33;9.93;;;5.80;;
5900;SDS011;2976;49.764;9.796;2023-03-08T03:41:02;12.90;;;6.50;;
5900;SDS011;2976;49.764;9.796;2023-03-08T03:43:30;13.90;;;6.90;;
5900;SDS011;2976;49.764;9.796;2023-03-08T03:45:57;10.30;;;5.83;;
5900;SDS011;2976;49.764;9.796;2023-03-08T03:48:24;19.20;;;7.20;;
5900;SDS011;2976;49.764;9.796;2023-03-08T03:50:54;13.73;;;6.57;;
5900;SDS011;2976;49.764;9.796;2023-03-08T03:53:23;13.67;;;6.20;;
5900;SDS011;2976;49.764;9.796;2023-03-08T03:55:49;9.73;;;5.70;;
5900;SDS011;2976;49.764;9.796;2023-03-08T03:58:15;8.93;;;5.47;;
5900;SDS011;2976;49.764;9.796;2023-03-08T04:00:40;11.30;;;5.83;;
5900;SDS011;2976;49.764;9.796;2023-03-08T04:03:06;10.10;;;5.90;;
5900;SDS011;2976;49.764;9.796;2023-03-08T04:05:32;12.60;;;7.37;;
5900;SDS011;2976;49.764;9.796;2023-03-08T04:07:57;12.33;;;6.40;;
5900;SDS011;2976;49.764;9.796;2023-03-08T04:10:23;12.00;;;7.10;;
5900;SDS011;2976;49.764;9.796;2023-03-08T04:12:49;9.80;;;5.80;;
5900;SDS011;2976;49.764;9.796;2023-03-08T04:15:15;11.33;;;6.53;;
5900;SDS011;2976;49.764;9.796;2023-03-08T04:17:41;13.53;;;7.23;;
5900;SDS011;2976;49.764;9.796;2023-03-08T04:20:07;23.13;;;6.50;;
5900;SDS011;2976;49.764;9.796;2023-03-08T04:22:33;11.53;;;6.57;;
5900;SDS011;2976;49.764;9.796;2023-03-08T04:24:58;15.33;;;7.40;;
5900;SDS011;2976;49.764;9.796;2023-03-08T04:27:24;12.77;;;7.00;;
5900;SDS011;2976;49.764;9.796;2023-03-08T04:29:50;11.23;;;6.13;;
5900;SDS011;2976;49.764;9.796;2023-03-08T04:32:16;12.47;;;7.07;;
5900;SDS011;2976;49.764;9.796;2023-03-08T04:34:42;12.07;;;6.40;;
5900;SDS011;2976;49.764;9.796;2023-03-08T04:37:11;14.03;;;7.17;;
5900;SDS011;2976;49.764;9.796;2023-03-08T04:39:36;10.50;;;6.70;;
5900;SDS011;2976;49.764;9.796;2023-03-08T04:42:02;12.90;;;6.37;;
5900;SDS011;2976;49.764;9.796;2023-03-08T04:44:28;12.30;;;6.57;;
5900;SDS011;2976;49.764;9.796;2023-03-08T04:46:53;13.67;;;6.60;;
5900;SDS011;2976;49.764;9.796;2023-03-08T04:49:19;12.70;;;6.67;;
5900;SDS011;2976;49.764;9.796;2023-03-08T04:51:44;11.60;;;6.90;;
5900;SDS011;2976;49.764;9.796;2023-03-08T04:54:10;14.40;;;6.27;;
5900;SDS011;2976;49.764;9.796;2023-03-08T04:56:36;9.53;;;5.63;;
5900;SDS011;2976;49.764;9.796;2023-03-08T04:59:02;17.03;;;6.87;;
5900;SDS011;2976;49.764;9.796;2023-03-08T05:01:28;12.13;;;6.70;;
5900;SDS011;2976;49.764;9.796;2023-03-08T05:03:53;13.60;;;6.73;;
5900;SDS011;2976;49.764;9.796;2023-03-08T05:06:20;13.00;;;6.13;;
5900;SDS011;2976;49.764;9.796;2023-03-08T05:08:47;10.93;;;6.47;;
5900;SDS011;2976;49.764;9.796;2023-03-08T05:11:16;10.73;;;6.00;;
5900;SDS011;2976;49.764;9.796;2023-03-08T05:13:44;13.60;;;7.90;;
5900;SDS011;2976;49.764;9.796;2023-03-08T05:16:09;15.50;;;6.43;;
5900;SDS011;2976;49.764;9.796;2023-03-08T05:18:35;12.77;;;6.23;;
5900;SDS011;2976;49.764;9.796;2023-03-08T05:21:11;17.63;;;7.57;;
5900;SDS011;2976;49.764;9.796;2023-03-08T05:23:38;19.60;;;7.50;;
5900;SDS011;2976;49.764;9.796;2023-03-08T05:26:04;16.37;;;8.57;;
5900;SDS011;2976;49.764;9.796;2023-03-08T05:28:32;14.63;;;6.20;;
5900;SDS011;2976;49.764;9.796;2023-03-08T05:31:02;9.43;;;5.63;;
5900;SDS011;2976;49.764;9.796;2023-03-08T05:33:28;14.97;;;6.87;;
5900;SDS011;2976;49.764;9.796;2023-03-08T05:35:54;10.87;;;5.70;;
5900;SDS011;2976;49.764;9.796;2023-03-08T05:38:20;14.80;;;6.80;;
5900;SDS011;2976;49.764;9.796;2023-03-08T05:40:46;15.70;;;6.87;;
5900;SDS011;2976;49.764;9.796;2023-03-08T05:43:12;10.87;;;6.60;;
5900;SDS011;2976;49.764;9.796;2023-03-08T05:45:38;16.13;;;7.23;;
5900;SDS011;2976;49.764;9.796;2023-03-08T05:48:03;14.60;;;7.57;;
5900;SDS011;2976;49.764;9.796;2023-03-08T05:50:29;10.37;;;6.43;;
5900;SDS011;2976;49.764;9.796;2023-03-08T05:52:55;14.33;;;6.63;;
5900;SDS011;2976;49.764;9.796;2023-03-08T05:55:20;13.60;;;7.10;;
5900;SDS011;2976;49.764;9.796;2023-03-08T05:57:46;12.57;;;6.70;;
5900;SDS011;2976;49.764;9.796;2023-03-08T06:00:11;14.83;;;7.70;;
5900;SDS011;2976;49.764;9.796;2023-03-08T06:02:37;12.87;;;6.60;;
5900;SDS011;2976;49.764;9.796;2023-03-08T06:05:03;14.67;;;7.37;;
5900;SDS011;2976;49.764;9.796;2023-03-08T06:07:29;11.90;;;6.80;;
5900;SDS011;2976;49.764;9.796;2023-03-08T06:09:55;14.53;;;7.50;;
5900;SDS011;2976;49.764;9.796;2023-03-08T06:12:20;13.60;;;6.27;;
5900;SDS011;2976;49.764;9.796;2023-03-08T06:14:46;9.90;;;6.30;;
5900;SDS011;2976;49.764;9.796;2023-03-08T06:17:11;13.03;;;6.37;;
5900;SDS011;2976;49.764;9.796;2023-03-08T06:19:37;14.03;;;7.37;;
5900;SDS011;2976;49.764;9.796;2023-03-08T06:22:02;9.20;;;6.10;;
5900;SDS011;2976;49.764;9.796;2023-03-08T06:24:29;11.90;;;6.53;;
5900;SDS011;2976;49.764;9.796;2023-03-08T06:26:55;8.80;;;5.63;;
5900;SDS011;2976;49.764;9.796;2023-03-08T06:29:20;12.43;;;6.40;;
5900;SDS011;2976;49.764;9.796;2023-03-08T06:31:46;12.00;;;7.10;;
5900;SDS011;2976;49.764;9.796;2023-03-08T06:34:12;10.97;;;6.47;;
5900;SDS011;2976;49.764;9.796;2023-03-08T06:36:38;12.53;;;7.40;;
5900;SDS011;2976;49.764;9.796;2023-03-08T06:39:03;15.17;;;7.20;;
5900;SDS011;2976;49.764;9.796;2023-03-08T06:41:31;8.60;;;6.00;;
5900;SDS011;2976;49.764;9.796;2023-03-08T06:43:56;13.57;;;6.70;;
5900;SDS011;2976;49.764;9.796;2023-03-08T06:46:22;12.27;;;5.43;;
5900;SDS011;2976;49.764;9.796;2023-03-08T06:48:48;9.37;;;6.00;;
5900;SDS011;2976;49.764;9.796;2023-03-08T06:51:14;14.77;;;6.03;;
5900;SDS011;2976;49.764;9.796;2023-03-08T06:53:41;13.20;;;6.67;;
5900;SDS011;2976;49.764;9.796;2023-03-08T06:56:07;12.17;;;7.10;;
5900;SDS011;2976;49.764;9.796;2023-03-08T06:58:36;10.83;;;6.33;;
5900;SDS011;2976;49.764;9.796;2023-03-08T07:01:01;11.73;;;7.27;;
5900;SDS011;2976;49.764;9.796;2023-03-08T07:03:30;12.93;;;6.90;;
5900;SDS011;2976;49.764;9.796;2023-03-08T07:05:59;17.07;;;7.27;;
5900;SDS011;2976;49.764;9.796;2023-03-08T07:08:34;15.87;;;7.20;;
5900;SDS011;2976;49.764;9.796;2023-03-08T07:11:01;10.90;;;6.40;;
5900;SDS011;2976;49.764;9.796;2023-03-08T07:13:27;22.67;;;6.53;;
5900;SDS011;2976;49.764;9.796;2023-03-08T07:15:53;15.57;;;6.63;;
5900;SDS011;2976;49.764;9.796;2023-03-08T07:18:20;9.00;;;5.83;;
5900;SDS011;2976;49.764;9.796;2023-03-08T07:20:50;14.10;;;8.10;;
5900;SDS011;2976;49.764;9.796;2023-03-08T07:23:16;13.70;;;6.90;;
5900;SDS011;2976;49.764;9.796;2023-03-08T07:25:42;12.20;;;6.87;;
5900;SDS011;2976;49.764;9.796;2023-03-08T07:28:07;17.00;;;7.00;;
5900;SDS011;2976;49.764;9.796;2023-03-08T07:30:33;14.73;;;7.13;;
5900;SDS011;2976;49.764;9.796;2023-03-08T07:32:58;21.70;;;7.00;;
5900;SDS011;2976;49.764;9.796;2023-03-08T07:35:24;12.40;;;7.60;;
5900;SDS011;2976;49.764;9.796;2023-03-08T07:37:49;16.40;;;7.87;;
5900;SDS011;2976;49.764;9.796;2023-03-08T07:40:15;14.50;;;7.30;;
5900;SDS011;2976;49.764;9.796;2023-03-08T07:42:42;18.17;;;7.87;;
5900;SDS011;2976;49.764;9.796;2023-03-08T07:45:08;14.50;;;8.53;;
5900;SDS011;2976;49.764;9.796;2023-03-08T07:47:35;12.33;;;6.40;;
5900;SDS011;2976;49.764;9.796;2023-03-08T07:50:01;15.57;;;6.93;;
5900;SDS011;2976;49.764;9.796;2023-03-08T07:52:27;18.70;;;7.20;;
5900;SDS011;2976;49.764;9.796;2023-03-08T07:54:53;17.50;;;7.30;;
5900;SDS011;2976;49.764;9.796;2023-03-08T07:57:19;23.20;;;8.97;;
5900;SDS011;2976;49.764;9.796;2023-03-08T07:59:45;15.37;;;8.37;;
5900;SDS011;2976;49.764;9.796;2023-03-08T08:02:11;13.57;;;7.97;;
5900;SDS011;2976;49.764;9.796;2023-03-08T08:04:38;16.13;;;8.00;;
5900;SDS011;2976;49.764;9.796;2023-03-08T08:07:03;17.17;;;8.83;;
5900;SDS011;2976;49.764;9.796;2023-03-08T08:09:29;10.70;;;7.50;;
5900;SDS011;2976;49.764;9.796;2023-03-08T08:11:55;12.87;;;7.70;;
5900;SDS011;2976;49.764;9.796;2023-03-08T08:14:20;14.37;;;8.07;;
5900;SDS011;2976;49.764;9.796;2023-03-08T08:16:46;13.07;;;7.50;;
5900;SDS011;2976;49.764;9.796;2023-03-08T08:19:11;15.13;;;7.30;;
5900;SDS011;2976;49.764;9.796;2023-03-08T08:21:38;12.70;;;8.00;;
5900;SDS011;2976;49.764;9.796;2023-03-08T08:24:04;12.20;;;7.53;;
5900;SDS011;2976;49.764;9.796;2023-03-08T08:26:30;13.67;;;7.90;;
5900;SDS011;2976;49.764;9.796;2023-03-08T08:28:56;19.70;;;9.87;;
5900;SDS011;2976;49.764;9.796;2023-03-08T08:31:23;20.70;;;8.90;;
5900;SDS011;2976;49.764;9.796;2023-03-08T08:33:52;13.63;;;8.13;;
5900;SDS011;2976;49.764;9.796;2023-03-08T08:36:18;16.07;;;8.80;;
5900;SDS011;2976;49.764;9.796;2023-03-08T08:38:44;15.43;;;7.97;;
5900;SDS011;2976;49.764;9.796;2023-03-08T08:41:11;15.27;;;9.77;;
5900;SDS011;2976;49.764;9.796;2023-03-08T08:43:39;17.50;;;8.33;;
5900;SDS011;2976;49.764;9.796;2023-03-08T08:46:05;17.93;;;9.00;;
5900;SDS011;2976;49.764;9.796;2023-03-08T08:48:31;17.87;;;9.67;;
5900;SDS011;2976;49.764;9.796;2023-03-08T08:50:57;13.40;;;8.07;;
5900;SDS011;2976;49.764;9.796;2023-03-08T08:53:24;22.23;;;9.30;;
5900;SDS011;2976;49.764;9.796;2023-03-08T08:55:50;19.73;;;9.00;;
5900;SDS011;2976;49.764;9.796;2023-03-08T08:58:16;12.73;;;7.83;;
5900;SDS011;2976;49.764;9.796;2023-03-08T09:00:41;20.33;;;9.00;;
5900;SDS011;2976;49.764;9.796;2023-03-08T09:03:07;15.70;;;8.13;;
5900;SDS011;2976;49.764;9.796;2023-03-08T09:05:33;15.80;;;8.83;;
5900;SDS011;2976;49.764;9.796;2023-03-08T09:08:02;20.17;;;8.60;;
5900;SDS011;2976;49.764;9.796;2023-03-08T09:10:28;13.27;;;8.50;;
5900;SDS011;2976;49.764;9.796;2023-03-08T09:12:55;20.93;;;9.27;;
5900;SDS011;2976;49.764;9.796;2023-03-08T09:15:22;21.37;;;9.33;;
5900;SDS011;2976;49.764;9.796;2023-03-08T09:17:48;15.27;;;8.40;;
5900;SDS011;2976;49.764;9.796;2023-03-08T09:20:14;12.80;;;8.07;;
5900;SDS011;2976;49.764;9.796;2023-03-08T09:22:41;19.93;;;8.93;;
5900;SDS011;2976;49.764;9.796;2023-03-08T09:25:07;13.37;;;8.40;;
5900;SDS011;2976;49.764;9.796;2023-03-08T09:27:33;12.40;;;7.67;;
5900;SDS011;2976;49.764;9.796;2023-03-08T09:30:00;13.07;;;7.43;;
5900;SDS011;2976;49.764;9.796;2023-03-08T09:32:26;14.27;;;8.37;;
5900;SDS011;2976;49.764;9.796;2023-03-08T09:34:52;14.20;;;7.70;;
5900;SDS011;2976;49.764;9.796;2023-03-08T09:37:18;14.97;;;8.27;;
5900;SDS011;2976;49.764;9.796;2023-03-08T09:39:43;18.30;;;8.20;;
5900;SDS011;2976;49.764;9.796;2023-03-08T09:42:22;12.80;;;7.10;;
5900;SDS011;2976;49.764;9.796;2023-03-08T09:52:38;12.17;;;7.60;;
5900;SDS011;2976;49.764;9.796;2023-03-08T09:57:54;14.73;;;8.60;;
5900;SDS011;2976;49.764;9.796;2023-03-08T10:00:25;15.40;;;8.30;;
5900;SDS011;2976;49.764;9.796;2023-03-08T10:08:25;19.27;;;8.67;;
5900;SDS011;2976;49.764;9.796;2023-03-08T10:10:57;16.50;;;7.93;;
5900;SDS011;2976;49.764;9.796;2023-03-08T10:13:32;12.67;;;8.07;;
5900;SDS011;2976;49.764;9.796;2023-03-08T10:18:38;16.67;;;9.67;;
5900;SDS011;2976;49.764;9.796;2023-03-08T10:21:16;14.30;;;8.80;;
5900;SDS011;2976;49.764;9.796;2023-03-08T10:23:47;15.77;;;8.73;;
5900;SDS011;2976;49.764;9.796;2023-03-08T10:26:26;13.97;;;8.77;;
5900;SDS011;2976;49.764;9.796;2023-03-08T10:28:52;22.93;;;9.40;;
5900;SDS011;2976;49.764;9.796;2023-03-08T10:31:20;16.77;;;9.70;;
5900;SDS011;2976;49.764;9.796;2023-03-08T10:33:52;20.53;;;10.13;;
5900;SDS011;2976;49.764;9.796;2023-03-08T10:36:26;21.03;;;10.07;;
5900;SDS011;2976;49.764;9.796;2023-03-08T10:38:56;16.83;;;9.37;;
5900;SDS011;2976;49.764;9.796;2023-03-08T10:41:24;19.17;;;9.83;;
5900;SDS011;2976;49.764;9.796;2023-03-08T10:43:53;17.63;;;9.27;;
5900;SDS011;2976;49.764;9.796;2023-03-08T10:46:20;18.03;;;9.63;;
5900;SDS011;2976;49.764;9.796;2023-03-08T10:48:49;17.27;;;10.03;;
5900;SDS011;2976;49.764;9.796;2023-03-08T10:51:19;18.33;;;9.43;;
5900;SDS011;2976;49.764;9.796;2023-03-08T10:53:56;19.30;;;10.20;;
5900;SDS011;2976;49.764;9.796;2023-03-08T10:56:43;16.00;;;9.90;;
5900;SDS011;2976;49.764;9.796;2023-03-08T10:59:16;18.73;;;9.77;;
5900;SDS011;2976;49.764;9.796;2023-03-08T11:01:52;20.87;;;11.40;;
5900;SDS011;2976;49.764;9.796;2023-03-08T11:04:21;23.10;;;12.73;;
5900;SDS011;2976;49.764;9.796;2023-03-08T11:06:51;21.33;;;10.30;;
5900;SDS011;2976;49.764;9.796;2023-03-08T11:09:25;21.03;;;11.13;;
5900;SDS011;2976;49.764;9.796;2023-03-08T11:11:51;18.30;;;10.50;;
5900;SDS011;2976;49.764;9.796;2023-03-08T11:14:18;14.97;;;8.87;;
5900;SDS011;2976;49.764;9.796;2023-03-08T11:19:46;17.43;;;9.80;;
5900;SDS011;2976;49.764;9.796;2023-03-08T11:22:29;15.30;;;9.00;;
5900;SDS011;2976;49.764;9.796;2023-03-08T11:28:06;14.60;;;8.97;;
5900;SDS011;2976;49.764;9.796;2023-03-08T11:36:36;14.70;;;8.47;;
5900;SDS011;2976;49.764;9.796;2023-03-08T11:44:46;22.43;;;11.27;;
5900;SDS011;2976;49.764;9.796;2023-03-08T11:47:35;21.13;;;10.90;;
5900;SDS011;2976;49.764;9.796;2023-03-08T11:53:17;22.90;;;10.30;;
5900;SDS011;2976;49.764;9.796;2023-03-08T11:56:05;17.77;;;10.60;;
5900;SDS011;2976;49.764;9.796;2023-03-08T11:58:54;19.30;;;10.77;;
5900;SDS011;2976;49.764;9.796;2023-03-08T12:01:26;14.90;;;9.00;;
5900;SDS011;2976;49.764;9.796;2023-03-08T12:03:58;16.90;;;9.47;;
5900;SDS011;2976;49.764;9.796;2023-03-08T12:06:39;17.13;;;10.03;;
5900;SDS011;2976;49.764;9.796;2023-03-08T12:09:11;20.50;;;10.17;;
5900;SDS011;2976;49.764;9.796;2023-03-08T12:12:05;18.90;;;10.67;;
5900;SDS011;2976;49.764;9.796;2023-03-08T12:14:47;20.80;;;11.50;;
5900;SDS011;2976;49.764;9.796;2023-03-08T12:17:24;19.80;;;10.20;;
5900;SDS011;2976;49.764;9.796;2023-03-08T12:19:59;15.80;;;9.30;;
5900;SDS011;2976;49.764;9.796;2023-03-08T12:27:46;17.90;;;11.00;;
5900;SDS011;2976;49.764;9.796;2023-03-08T12:33:05;20.03;;;10.90;;
5900;SDS011;2976;49.764;9.796;2023-03-08T12:35:36;19.60;;;11.23;;
5900;SDS011;2976;49.764;9.796;2023-03-08T12:40:48;17.80;;;10.60;;
5900;SDS011;2976;49.764;9.796;2023-03-08T12:45:45;21.77;;;11.50;;
5900;SDS011;2976;49.764;9.796;2023-03-08T12:48:23;25.17;;;12.30;;
5900;SDS011;2976;49.764;9.796;2023-03-08T12:56:20;19.60;;;12.07;;
5900;SDS011;2976;49.764;9.796;2023-03-08T12:58:57;22.17;;;12.40;;
5900;SDS011;2976;49.764;9.796;2023-03-08T13:03:53;25.43;;;12.27;;
5900;SDS011;2976;49.764;9.796;2023-03-08T13:08:50;25.30;;;12.70;;
5900;SDS011;2976;49.764;9.796;2023-03-08T13:11:19;23.97;;;13.30;;
5900;SDS011;2976;49.764;9.796;2023-03-08T13:13:52;27.90;;;13.00;;
5900;SDS011;2976;49.764;9.796;2023-03-08T13:19:06;24.57;;;13.00;;
5900;SDS011;2976;49.764;9.796;2023-03-08T13:21:38;25.57;;;11.50;;
5900;SDS011;2976;49.764;9.796;2023-03-08T13:27:11;23.20;;;13.23;;
5900;SDS011;2976;49.764;9.796;2023-03-08T13:29:45;24.33;;;12.40;;
5900;SDS011;2976;49.764;9.796;2023-03-08T13:32:16;20.77;;;11.90;;
5900;SDS011;2976;49.764;9.796;2023-03-08T13:34:45;21.37;;;11.97;;
5900;SDS011;2976;49.764;9.796;2023-03-08T13:37:23;21.40;;;11.40;;
5900;SDS011;2976;49.764;9.796;2023-03-08T13:39:54;20.73;;;12.63;;
5900;SDS011;2976;49.764;9.796;2023-03-08T13:42:22;21.67;;;11.23;;
5900;SDS011;2976;49.764;9.796;2023-03-08T13:44:50;20.03;;;11.90;;
5900;SDS011;2976;49.764;9.796;2023-03-08T13:47:23;21.40;;;12.30;;
5900;SDS011;2976;49.764;9.796;2023-03-08T13:49:54;23.30;;;12.00;;
5900;SDS011;2976;49.764;9.796;2023-03-08T13:52:21;19.50;;;11.07;;
5900;SDS011;2976;49.764;9.796;2023-03-08T13:54:51;17.80;;;10.23;;
5900;SDS011;2976;49.764;9.796;2023-03-08T13:57:20;25.87;;;12.27;;
5900;SDS011;2976;49.764;9.796;2023-03-08T13:59:51;17.00;;;10.17;;
5900;SDS011;2976;49.764;9.796;2023-03-08T14:02:23;16.47;;;10.70;;
5900;SDS011;2976;49.764;9.796;2023-03-08T14:04:50;16.27;;;10.67;;
5900;SDS011;2976;49.764;9.796;2023-03-08T14:07:18;19.73;;;10.60;;
5900;SDS011;2976;49.764;9.796;2023-03-08T14:09:52;24.53;;;10.90;;
5900;SDS011;2976;49.764;9.796;2023-03-08T14:12:18;17.03;;;10.30;;
5900;SDS011;2976;49.764;9.796;2023-03-08T14:14:48;17.13;;;9.90;;
5900;SDS011;2976;49.764;9.796;2023-03-08T14:17:37;19.17;;;11.10;;
5900;SDS011;2976;49.764;9.796;2023-03-08T14:20:15;17.10;;;9.40;;
5900;SDS011;2976;49.764;9.796;2023-03-08T14:22:45;21.47;;;9.70;;
5900;SDS011;2976;49.764;9.796;2023-03-08T14:25:23;15.20;;;9.07;;
5900;SDS011;2976;49.764;9.796;2023-03-08T14:27:53;14.00;;;9.20;;
5900;SDS011;2976;49.764;9.796;2023-03-08T14:33:02;13.00;;;8.53;;
5900;SDS011;2976;49.764;9.796;2023-03-08T14:35:42;16.27;;;8.93;;
5900;SDS011;2976;49.764;9.796;2023-03-08T14:38:19;13.33;;;9.10;;
5900;SDS011;2976;49.764;9.796;2023-03-08T14:40:48;13.00;;;8.30;;
5900;SDS011;2976;49.764;9.796;2023-03-08T14:43:16;13.60;;;8.10;;
5900;SDS011;2976;49.764;9.796;2023-03-08T14:45:51;11.20;;;8.00;;
5900;SDS011;2976;49.764;9.796;2023-03-08T14:48:30;12.60;;;8.63;;
5900;SDS011;2976;49.764;9.796;2023-03-08T14:53:36;11.07;;;7.57;;
5900;SDS011;2976;49.764;9.796;2023-03-08T14:56:13;23.50;;;8.17;;
5900;SDS011;2976;49.764;9.796;2023-03-08T14:58:44;10.50;;;7.50;;
5900;SDS011;2976;49.764;9.796;2023-03-08T15:01:21;11.40;;;7.63;;
5900;SDS011;2976;49.764;9.796;2023-03-08T15:03:51;10.07;;;6.80;;
5900;SDS011;2976;49.764;9.796;2023-03-08T15:06:21;14.63;;;7.60;;
5900;SDS011;2976;49.764;9.796;2023-03-08T15:08:49;16.43;;;7.40;;
5900;SDS011;2976;49.764;9.796;2023-03-08T15:11:15;12.97;;;7.67;;
5900;SDS011;2976;49.764;9.796;2023-03-08T15:13:40;8.57;;;6.70;;
5900;SDS011;2976;49.764;9.796;2023-03-08T15:16:06;10.40;;;6.17;;
5900;SDS011;2976;49.764;9.796;2023-03-08T15:18:33;10.77;;;5.77;;
5900;SDS011;2976;49.764;9.796;2023-03-08T15:20:59;7.47;;;6.00;;
5900;SDS011;2976;49.764;9.796;2023-03-08T15:23:26;9.13;;;6.00;;
5900;SDS011;2976;49.764;9.796;2023-03-08T15:25:54;10.83;;;5.70;;
5900;SDS011;2976;49.764;9.796;2023-03-08T15:28:21;9.93;;;5.57;;
5900;SDS011;2976;49.764;9.796;2023-03-08T15:30:48;8.97;;;5.40;;
5900;SDS011;2976;49.764;9.796;2023-03-08T15:33:16;7.07;;;5.17;;
5900;SDS011;2976;49.764;9.796;2023-03-08T15:35:42;10.70;;;5.10;;
5900;SDS011;2976;49.764;9.796;2023-03-08T15:38:10;6.93;;;5.50;;
5900;SDS011;2976;49.764;9.796;2023-03-08T15:40:37;7.57;;;4.87;;
5900;SDS011;2976;49.764;9.796;2023-03-08T15:43:03;8.20;;;5.10;;
5900;SDS011;2976;49.764;9.796;2023-03-08T15:45:28;7.60;;;4.60;;
5900;SDS011;2976;49.764;9.796;2023-03-08T15:48:04;5.40;;;4.07;;
5900;SDS011;2976;49.764;9.796;2023-03-08T15:50:37;8.30;;;4.13;;
5900;SDS011;2976;49.764;9.796;2023-03-08T15:53:03;5.30;;;4.20;;
5900;SDS011;2976;49.764;9.796;2023-03-08T15:55:29;7.17;;;4.57;;
5900;SDS011;2976;49.764;9.796;2023-03-08T15:57:55;11.80;;;4.40;;
5900;SDS011;2976;49.764;9.796;2023-03-08T16:00:22;6.20;;;4.70;;
5900;SDS011;2976;49.764;9.796;2023-03-08T16:02:48;6.70;;;4.67;;
5900;SDS011;2976;49.764;9.796;2023-03-08T16:05:15;4.93;;;4.23;;
5900;SDS011;2976;49.764;9.796;2023-03-08T16:07:43;8.33;;;4.50;;
5900;SDS011;2976;49.764;9.796;2023-03-08T16:10:10;6.43;;;4.83;;
5900;SDS011;2976;49.764;9.796;2023-03-08T16:12:37;9.60;;;5.07;;
5900;SDS011;2976;49.764;9.796;2023-03-08T16:15:03;6.93;;;5.23;;
5900;SDS011;2976;49.764;9.796;2023-03-08T16:17:29;4.87;;;4.00;;
5900;SDS011;2976;49.764;9.796;2023-03-08T16:19:55;6.43;;;5.50;;
5900;SDS011;2976;49.764;9.796;2023-03-08T16:22:21;7.17;;;5.50;;